createdAt,value
2023-02-24T00:00:37.694Z,6.25
2023-02-24T00:03:48.836Z,6.25
2023-02-24T00:06:23.997Z,6.29
2023-02-24T00:09:19.539Z,6.33
2023-02-24T00:12:25.417Z,6.36
2023-02-24T00:14:53.177Z,6.36
2023-02-24T00:17:44.175Z,6.34
2023-02-24T00:20:36.601Z,6.33
2023-02-24T00:23:26.510Z,6.37
2023-02-24T00:26:21.511Z,6.40
2023-02-24T00:29:07.872Z,6.41
2023-02-24T00:32:38.684Z,6.42
2023-02-24T00:35:48.287Z,6.43
2023-02-24T00:38:44.034Z,6.44
2023-02-24T00:41:23.647Z,6.47
2023-02-24T00:44:12.090Z,6.45
2023-02-24T00:47:14.047Z,6.48
2023-02-24T00:49:51.864Z,6.53
2023-02-24T00:52:39.051Z,6.54
2023-02-24T00:55:15.658Z,6.54
2023-02-24T00:58:05.233Z,6.52
2023-02-24T01:01:25.630Z,6.52
2023-02-24T01:04:32.789Z,6.54
2023-02-24T01:07:44.631Z,6.60
2023-02-24T01:11:12.306Z,6.60
2023-02-24T01:14:19.468Z,6.62
2023-02-24T01:17:26.486Z,6.61
2023-02-24T01:20:22.963Z,6.60
2023-02-24T01:23:12.502Z,6.59
2023-02-24T01:26:06.162Z,6.59
2023-02-24T01:28:43.385Z,6.59
2023-02-24T01:31:50.790Z,6.59
2023-02-24T01:34:44.147Z,6.62
2023-02-24T01:37:17.248Z,6.66
2023-02-24T01:39:53.180Z,6.67
2023-02-24T01:42:54.516Z,6.69
2023-02-24T01:45:44.206Z,6.69
2023-02-24T01:48:33.494Z,6.70
2023-02-24T01:51:21.743Z,6.69
2023-02-24T01:54:27.494Z,6.68
2023-02-24T01:57:02.879Z,6.70
2023-02-24T01:59:54.708Z,6.72
2023-02-24T02:05:20.651Z,6.77
2023-02-24T02:08:23.143Z,6.78
2023-02-24T02:10:59.232Z,6.78
2023-02-24T02:13:29.074Z,6.80
2023-02-24T02:16:19.702Z,6.82
2023-02-24T02:19:02.726Z,6.85
2023-02-24T02:22:01.597Z,6.85
2023-02-24T02:24:55.812Z,6.83
2023-02-24T02:27:26.073Z,6.82
2023-02-24T02:30:09.829Z,6.83
2023-02-24T02:32:41.393Z,6.85
2023-02-24T02:35:20.864Z,6.86
2023-02-24T02:38:10.057Z,6.88
2023-02-24T02:40:53.632Z,6.89
2023-02-24T02:43:53.183Z,6.89
2023-02-24T02:46:35.167Z,6.88
2023-02-24T02:49:14.675Z,6.88
2023-02-24T02:51:48.603Z,6.90
2023-02-24T02:54:19.498Z,6.90
2023-02-24T02:57:09.298Z,6.90
2023-02-24T02:59:42.331Z,6.93
2023-02-24T03:02:13.631Z,6.92
2023-02-24T03:04:52.382Z,6.92
2023-02-24T03:07:23.369Z,6.92
2023-02-24T03:10:02.092Z,6.90
2023-02-24T03:12:33.533Z,6.94
2023-02-24T03:15:11.616Z,6.95
2023-02-24T03:17:44.046Z,6.93
2023-02-24T03:20:25.169Z,6.93
2023-02-24T03:22:58.932Z,6.91
2023-02-24T03:25:34.319Z,6.89
2023-02-24T03:28:16.889Z,6.88
2023-02-24T03:31:00.978Z,6.87
2023-02-24T03:33:45.130Z,6.86
2023-02-24T03:36:15.562Z,6.84
2023-02-24T03:38:44.296Z,6.85
2023-02-24T03:41:11.621Z,6.84
2023-02-24T03:43:51.052Z,6.84
2023-02-24T03:46:18.944Z,6.84
2023-02-24T03:48:54.457Z,6.85
2023-02-24T03:51:23.676Z,6.85
2023-02-24T03:54:13.831Z,6.83
2023-02-24T03:57:26.666Z,6.81
2023-02-24T04:00:34.328Z,6.79
2023-02-24T04:03:35.893Z,6.82
2023-02-24T04:06:14.335Z,6.82
2023-02-24T04:09:05.224Z,6.81
2023-02-24T04:11:56.064Z,6.81
2023-02-24T04:14:30.053Z,6.79
2023-02-24T04:17:30.627Z,6.76
2023-02-24T04:20:01.787Z,6.72
2023-02-24T04:22:31.101Z,6.72
2023-02-24T04:25:01.046Z,6.72
2023-02-24T04:27:29.170Z,6.71
2023-02-24T04:30:00.663Z,6.67
2023-02-24T04:32:31.877Z,6.63
2023-02-24T04:35:07.741Z,6.56
2023-02-24T04:37:40.214Z,6.51
2023-02-24T04:40:14.130Z,6.43
2023-02-24T04:42:46.834Z,6.40
2023-02-24T04:45:28.566Z,6.38
2023-02-24T04:48:01.329Z,6.32
2023-02-24T04:50:37.529Z,6.28
2023-02-24T04:53:12.131Z,6.25
2023-02-24T04:55:42.942Z,6.21
2023-02-24T04:58:13.836Z,6.19
2023-02-24T05:00:42.431Z,6.20
2023-02-24T05:03:12.480Z,6.19
2023-02-24T05:05:40.144Z,6.19
2023-02-24T05:08:09.450Z,6.20
2023-02-24T05:10:40.246Z,6.18
2023-02-24T05:13:09.945Z,6.12
2023-02-24T05:15:42.150Z,6.10
2023-02-24T05:18:15.350Z,6.07
2023-02-24T05:21:04.018Z,6.02
2023-02-24T05:23:35.923Z,6.00
2023-02-24T05:26:09.389Z,6.03
2023-02-24T05:28:41.113Z,6.02
2023-02-24T05:31:11.855Z,5.98
2023-02-24T05:33:39.838Z,5.97
2023-02-24T05:36:10.088Z,5.94
2023-02-24T05:38:38.545Z,5.95
2023-02-24T05:41:17.427Z,5.96
2023-02-24T05:43:53.375Z,5.95
2023-02-24T05:46:33.287Z,5.91
2023-02-24T05:49:04.509Z,5.92
2023-02-24T05:51:36.279Z,5.94
2023-02-24T05:54:05.149Z,5.96
2023-02-24T05:56:34.342Z,5.98
2023-02-24T05:59:03.294Z,5.98
2023-02-24T06:01:36.474Z,5.95
2023-02-24T06:04:08.533Z,5.94
2023-02-24T06:06:40.812Z,5.89
2023-02-24T06:09:13.889Z,5.89
2023-02-24T06:11:43.528Z,5.92
2023-02-24T06:14:12.350Z,5.93
2023-02-24T06:16:41.608Z,5.92
2023-02-24T06:19:10.785Z,5.93
2023-02-24T06:21:41.572Z,5.95
2023-02-24T06:24:19.326Z,5.98
2023-02-24T06:26:47.212Z,5.99
2023-02-24T06:29:16.327Z,5.92
2023-02-24T06:31:45.011Z,5.89
2023-02-24T06:34:14.200Z,5.92
2023-02-24T06:36:41.572Z,5.93
2023-02-24T06:39:10.087Z,5.95
2023-02-24T06:41:38.475Z,5.96
2023-02-24T06:44:06.340Z,5.98
2023-02-24T06:46:35.080Z,5.99
2023-02-24T06:49:03.474Z,5.94
2023-02-24T06:51:30.661Z,5.89
2023-02-24T06:53:59.990Z,5.89
2023-02-24T06:57:14.297Z,5.88
2023-02-24T06:59:58.032Z,5.87
2023-02-24T07:02:49.005Z,5.88
2023-02-24T07:05:19.498Z,5.86
2023-02-24T07:08:23.674Z,5.86
2023-02-24T07:11:34.309Z,5.86
2023-02-24T07:14:22.803Z,5.86
2023-02-24T07:17:41.706Z,5.88
2023-02-24T07:20:26.226Z,5.86
2023-02-24T07:23:16.044Z,5.87
2023-02-24T07:26:27.386Z,5.89
2023-02-24T07:29:54.893Z,5.92
2023-02-24T07:33:21.846Z,5.92
2023-02-24T07:36:51.698Z,5.95
2023-02-24T07:39:40.731Z,6.00
2023-02-24T07:43:09.981Z,6.03
2023-02-24T07:46:07.664Z,6.05
2023-02-24T07:49:34.807Z,6.04
2023-02-24T07:52:37.846Z,6.06
2023-02-24T07:56:06.095Z,6.08
2023-02-24T07:59:47.589Z,6.11
2023-02-24T08:02:58.654Z,6.14
2023-02-24T08:06:33.029Z,6.18
2023-02-24T08:09:46.715Z,6.21
2023-02-24T08:13:27.139Z,6.26
2023-02-24T08:16:57.247Z,6.29
2023-02-24T08:20:15.994Z,6.30
2023-02-24T08:23:06.876Z,6.32
2023-02-24T08:26:37.973Z,6.34
2023-02-24T08:30:19.873Z,6.35
2023-02-24T08:33:47.297Z,6.41
2023-02-24T08:37:00.731Z,6.41
2023-02-24T08:40:27.627Z,6.43
2023-02-24T08:43:16.568Z,6.44
2023-02-24T08:46:27.263Z,6.42
2023-02-24T08:49:55.287Z,6.41
2023-02-24T08:53:03.433Z,6.41
2023-02-24T08:56:30.587Z,6.42
2023-02-24T08:59:42.549Z,6.44
2023-02-24T09:03:18.815Z,6.41
2023-02-24T09:06:33.111Z,6.38
2023-02-24T09:09:46.812Z,6.41
2023-02-24T09:13:03.728Z,6.42
2023-02-24T09:16:34.151Z,6.45
2023-02-24T09:20:03.466Z,6.49
2023-02-24T09:23:43.662Z,6.47
2023-02-24T09:27:13.110Z,6.47
2023-02-24T09:31:00.151Z,6.48
2023-02-24T09:34:21.556Z,6.52
2023-02-24T09:37:49.059Z,6.57
2023-02-24T09:41:18.915Z,6.59
2023-02-24T09:44:52.112Z,6.63
2023-02-24T09:48:28.862Z,6.68
2023-02-24T09:51:43.656Z,6.75
2023-02-24T09:54:39.273Z,6.81
2023-02-24T09:58:07.445Z,6.78
2023-02-24T10:01:53.821Z,6.85
2023-02-24T10:05:16.935Z,6.89
2023-02-24T10:08:43.976Z,6.95
2023-02-24T10:11:53.729Z,6.98
2023-02-24T10:15:19.581Z,7.06
2023-02-24T10:18:55.845Z,7.16
2023-02-24T10:22:28.765Z,7.22
2023-02-24T10:25:49.676Z,7.27
2023-02-24T10:28:59.593Z,7.31
2023-02-24T10:32:13.061Z,7.35
2023-02-24T10:35:40.613Z,7.39
2023-02-24T10:38:54.077Z,7.43
2023-02-24T10:42:38.557Z,7.45
2023-02-24T10:46:08.397Z,7.42
2023-02-24T10:49:21.660Z,7.41
2023-02-24T10:52:57.988Z,7.37
2023-02-24T10:56:47.697Z,7.35
2023-02-24T11:00:40.685Z,7.36
2023-02-24T11:04:09.256Z,7.36
2023-02-24T11:07:45.435Z,7.41
2023-02-24T11:11:21.675Z,7.46
2023-02-24T11:14:47.941Z,7.46
2023-02-24T11:18:15.312Z,7.50
2023-02-24T11:21:51.714Z,7.44
2023-02-24T11:25:35.435Z,7.47
2023-02-24T11:29:02.370Z,7.52
2023-02-24T11:32:36.650Z,7.65
2023-02-24T11:36:18.515Z,7.74
2023-02-24T11:39:41.163Z,7.80
2023-02-24T11:43:37.619Z,7.82
2023-02-24T11:47:04.465Z,7.83
2023-02-24T11:50:20.981Z,7.86
2023-02-24T11:53:40.513Z,7.88
2023-02-24T11:56:45.314Z,7.86
2023-02-24T12:00:04.646Z,7.86
2023-02-24T12:03:49.104Z,7.84
2023-02-24T12:07:21.995Z,7.83
2023-02-24T12:10:48.077Z,7.80
2023-02-24T12:14:55.937Z,7.89
2023-02-24T12:18:18.339Z,7.94
2023-02-24T12:21:57.500Z,8.06
2023-02-24T12:25:28.604Z,8.22
2023-02-24T12:29:18.320Z,8.46
2023-02-24T12:32:52.062Z,8.63
2023-02-24T12:36:30.756Z,8.68
2023-02-24T12:39:58.093Z,8.70
2023-02-24T12:43:27.494Z,8.73
2023-02-24T12:47:17.959Z,8.73
2023-02-24T12:54:49.683Z,8.67
2023-02-24T12:58:06.120Z,8.48
2023-02-24T13:02:09.239Z,8.40
2023-02-24T13:05:42.071Z,8.37
2023-02-24T13:09:38.899Z,8.35
2023-02-24T13:13:43.126Z,8.22
2023-02-24T13:17:33.797Z,8.24
2023-02-24T13:21:30.008Z,8.24
2023-02-24T13:24:57.539Z,8.30
2023-02-24T13:28:44.298Z,8.35
2023-02-24T13:32:27.413Z,8.29
2023-02-24T13:35:34.529Z,8.25
2023-02-24T13:38:55.204Z,8.24
2023-02-24T13:42:22.637Z,8.19
2023-02-24T13:45:16.620Z,8.10
2023-02-24T13:48:55.123Z,8.08
2023-02-24T13:52:26.379Z,8.06
2023-02-24T13:56:13.465Z,8.05
2023-02-24T13:59:44.514Z,8.06
2023-02-24T14:03:21.114Z,7.92
2023-02-24T14:06:48.384Z,7.96
2023-02-24T14:10:15.239Z,7.96
2023-02-24T14:13:46.423Z,7.96
2023-02-24T14:17:14.413Z,7.97
2023-02-24T14:20:50.228Z,7.99
2023-02-24T14:24:26.244Z,7.99
2023-02-24T14:27:55.743Z,8.00
2023-02-24T14:31:29.225Z,7.94
2023-02-24T14:34:44.573Z,7.86
2023-02-24T14:38:11.377Z,7.79
2023-02-24T14:41:38.462Z,7.74
2023-02-24T14:45:26.467Z,7.71
2023-02-24T14:48:36.807Z,7.67
2023-02-24T14:52:13.794Z,7.71
2023-02-24T14:56:05.947Z,7.64
2023-02-24T14:59:59.971Z,7.54
2023-02-24T15:03:47.057Z,7.46
2023-02-24T15:07:34.172Z,7.41
2023-02-24T15:11:21.422Z,7.29
2023-02-24T15:15:10.308Z,7.18
2023-02-24T15:19:01.161Z,7.12
2023-02-24T15:22:59.608Z,7.14
2023-02-24T15:26:46.846Z,7.16
2023-02-24T15:30:39.906Z,7.21
2023-02-24T15:34:26.797Z,7.33
2023-02-24T15:37:57.724Z,7.39
2023-02-24T15:41:44.575Z,7.36
2023-02-24T15:45:11.382Z,7.38
2023-02-24T15:49:01.289Z,7.41
2023-02-24T15:52:38.662Z,7.40
2023-02-24T15:56:21.460Z,7.41
2023-02-24T16:00:06.484Z,7.36
2023-02-24T16:04:05.147Z,7.34
2023-02-24T16:07:53.164Z,7.34
2023-02-24T16:11:40.212Z,7.35
2023-02-24T16:15:08.190Z,7.30
2023-02-24T16:18:45.907Z,7.28
2023-02-24T16:22:32.895Z,7.26
2023-02-24T16:26:00.271Z,7.25
2023-02-24T16:29:56.203Z,7.25
2023-02-24T16:33:23.453Z,7.26
2023-02-24T16:37:10.293Z,7.12
2023-02-24T16:41:02.133Z,6.98
2023-02-24T16:44:49.539Z,7.01
2023-02-24T16:48:36.272Z,7.05
2023-02-24T16:52:23.985Z,6.98
2023-02-24T16:55:52.081Z,7.04
2023-02-24T16:59:19.270Z,7.02
2023-02-24T17:02:46.314Z,7.02
2023-02-24T17:06:33.090Z,7.03
2023-02-24T17:10:23.810Z,7.09
2023-02-24T17:14:33.841Z,7.12
2023-02-24T17:18:01.222Z,7.14
2023-02-24T17:21:51.759Z,7.07
2023-02-24T17:25:39.366Z,7.00
2023-02-24T17:33:14.864Z,6.81
2023-02-24T17:37:01.649Z,6.43
2023-02-24T17:40:32.045Z,6.37
2023-02-24T17:44:19.598Z,6.27
2023-02-24T17:48:07.819Z,6.12
2023-02-24T17:51:57.761Z,6.03
2023-02-24T17:55:34.919Z,5.95
2023-02-24T18:03:11.595Z,5.82
2023-02-24T18:06:38.000Z,5.91
2023-02-24T18:10:06.753Z,5.99
2023-02-24T18:13:51.628Z,6.10
2023-02-24T18:17:40.876Z,6.09
2023-02-24T18:21:10.938Z,5.87
2023-02-24T18:25:01.707Z,5.66
2023-02-24T18:28:38.912Z,5.52
2023-02-24T18:32:30.169Z,5.44
2023-02-24T18:36:21.005Z,5.35
2023-02-24T18:40:09.666Z,5.28
2023-02-24T18:44:06.825Z,5.10
2023-02-24T18:47:56.379Z,5.12
2023-02-24T18:51:43.645Z,5.17
2023-02-24T18:54:59.486Z,5.18
2023-02-24T18:58:32.281Z,5.11
2023-02-24T19:02:15.601Z,5.13
2023-02-24T19:06:02.493Z,5.14
2023-02-24T19:09:34.916Z,5.12
2023-02-24T19:12:45.521Z,5.13
2023-02-24T19:15:56.926Z,5.11
2023-02-24T19:18:29.230Z,5.21
2023-02-24T19:21:11.653Z,5.25
2023-02-24T19:25:08.090Z,5.17
2023-02-24T19:28:44.278Z,5.09
2023-02-24T19:31:27.745Z,5.11
2023-02-24T19:34:05.197Z,5.20
2023-02-24T19:36:59.752Z,5.28
2023-02-24T19:40:18.654Z,5.31
2023-02-24T19:43:45.614Z,5.29
2023-02-24T19:46:21.963Z,5.16
2023-02-24T19:48:50.860Z,5.09
2023-02-24T19:51:23.174Z,5.09
2023-02-24T19:53:57.773Z,5.03
2023-02-24T20:00:40.953Z,4.93
2023-02-24T20:03:28.658Z,4.98
2023-02-24T20:05:55.884Z,4.99
2023-02-24T20:06:24.702Z,4.97
2023-02-24T20:08:23.155Z,4.98
2023-02-24T20:11:00.653Z,4.98
2023-02-24T20:13:28.768Z,5.01
2023-02-24T20:16:29.265Z,5.08
2023-02-24T20:19:17.773Z,5.11
2023-02-24T20:21:45.160Z,5.13
2023-02-24T20:24:16.265Z,5.12
2023-02-24T20:27:26.544Z,5.12
2023-02-24T20:30:34.280Z,5.15
2023-02-24T20:33:01.614Z,5.14
2023-02-24T20:35:29.389Z,5.10
2023-02-24T20:37:59.032Z,5.11
2023-02-24T20:40:25.913Z,5.09
2023-02-24T20:43:32.004Z,5.09
2023-02-24T20:46:00.999Z,5.09
2023-02-24T20:48:28.790Z,5.10
2023-02-24T20:51:20.834Z,5.13
2023-02-24T20:54:14.001Z,5.13
2023-02-24T20:56:44.153Z,5.15
2023-02-24T20:59:26.286Z,5.18
2023-02-24T21:02:01.608Z,5.11
2023-02-24T21:04:40.077Z,4.99
2023-02-24T21:07:08.863Z,4.91
2023-02-24T21:10:11.566Z,4.92
2023-02-24T21:12:44.001Z,4.94
2023-02-24T21:15:16.606Z,4.95
2023-02-24T21:17:46.737Z,4.91
2023-02-24T21:20:17.242Z,4.84
2023-02-24T21:22:45.312Z,4.82
2023-02-24T21:25:12.671Z,4.85
2023-02-24T21:27:42.647Z,4.87
2023-02-24T21:30:11.654Z,4.88
2023-02-24T21:32:38.989Z,4.94
2023-02-24T21:35:06.510Z,5.00
2023-02-24T21:37:35.269Z,5.06
2023-02-24T21:40:02.445Z,5.13
2023-02-24T21:42:31.005Z,5.21
2023-02-24T21:45:02.581Z,5.25
2023-02-24T21:47:33.182Z,5.30
2023-02-24T21:50:05.065Z,5.35
2023-02-24T21:52:34.888Z,5.40
2023-02-24T21:55:02.963Z,5.38
2023-02-24T21:57:31.321Z,5.31
2023-02-24T21:59:58.855Z,5.23
2023-02-24T22:02:27.204Z,5.17
2023-02-24T22:04:54.623Z,5.02
2023-02-24T22:07:22.004Z,4.96
2023-02-24T22:09:50.517Z,5.02
2023-02-24T22:12:17.739Z,5.09
2023-02-24T22:14:50.610Z,5.15
2023-02-24T22:17:17.783Z,5.20
2023-02-24T22:19:45.339Z,5.18
2023-02-24T22:22:13.327Z,5.14
2023-02-24T22:24:43.522Z,5.11
2023-02-24T22:27:10.741Z,5.10
2023-02-24T22:29:39.000Z,5.10
2023-02-24T22:32:06.560Z,5.10
2023-02-24T22:34:33.695Z,5.09
2023-02-24T22:37:01.073Z,5.14
2023-02-24T22:39:28.360Z,5.16
2023-02-24T22:41:55.627Z,5.18
2023-02-24T22:44:23.002Z,5.17
2023-02-24T22:46:50.891Z,5.18
2023-02-24T22:49:18.068Z,5.23
2023-02-24T22:51:46.228Z,5.25
2023-02-24T22:54:14.716Z,5.21
2023-02-24T22:56:41.819Z,5.19
2023-02-24T22:59:11.307Z,5.18
2023-02-24T23:01:39.780Z,5.17
2023-02-24T23:04:10.003Z,5.16
2023-02-24T23:06:38.156Z,5.15
2023-02-24T23:09:06.881Z,5.22
2023-02-24T23:11:38.444Z,5.28
2023-02-24T23:14:10.451Z,5.31
2023-02-24T23:16:39.366Z,5.31
2023-02-24T23:19:14.840Z,5.27
2023-02-24T23:21:45.662Z,5.29
2023-02-24T23:24:15.016Z,5.28
2023-02-24T23:26:46.216Z,5.30
2023-02-24T23:29:16.634Z,5.29
2023-02-24T23:31:44.679Z,5.31
2023-02-24T23:34:12.568Z,5.37
2023-02-24T23:36:44.340Z,5.40
2023-02-24T23:39:14.659Z,5.38
2023-02-24T23:41:42.054Z,5.41
2023-02-24T23:44:10.532Z,5.45
2023-02-24T23:46:38.108Z,5.50
2023-02-24T23:49:06.658Z,5.52
2023-02-24T23:51:47.598Z,5.49
2023-02-24T23:54:16.283Z,5.50
2023-02-24T23:56:43.689Z,5.51
2023-02-24T23:59:15.192Z,5.50
